sensor_id;sensor_type;location;lat;lon;timestamp;temperature;humidity
45313;SHT31;68267;51.540;5.854;2023-11-22T00:02:16;4.2;92.1
45313;SHT31;68267;51.540;5.854;2023-11-22T00:15:35;4.2;91.2
45313;SHT31;68267;51.540;5.854;2023-11-22T00:28:55;3.9;90.7
45313;SHT31;68267;51.540;5.854;2023-11-22T00:42:15;3.7;90.6
45313;SHT31;68267;51.540;5.854;2023-11-22T00:55:34;3.5;90.7
45313;SHT31;68267;51.540;5.854;2023-11-22T01:08:54;3.3;90.7
45313;SHT31;68267;51.540;5.854;2023-11-22T01:22:14;3.2;90.8
45313;SHT31;68267;51.540;5.854;2023-11-22T01:35:33;3.2;91.2
45313;SHT31;68267;51.540;5.854;2023-11-22T01:48:53;3.3;90.8
45313;SHT31;68267;51.540;5.854;2023-11-22T02:02:12;2.9;90.7
45313;SHT31;68267;51.540;5.854;2023-11-22T02:15:35;2.9;90.8
45313;SHT31;68267;51.540;5.854;2023-11-22T02:28:54;2.7;90.7
45313;SHT31;68267;51.540;5.854;2023-11-22T02:42:14;2.6;90.7
45313;SHT31;68267;51.540;5.854;2023-11-22T02:55:34;2.7;91.3
45313;SHT31;68267;51.540;5.854;2023-11-22T03:08:53;2.7;91.2
45313;SHT31;68267;51.540;5.854;2023-11-22T03:22:13;2.4;91.0
45313;SHT31;68267;51.540;5.854;2023-11-22T03:35:33;2.2;90.8
45313;SHT31;68267;51.540;5.854;2023-11-22T03:48:52;1.9;91.2
45313;SHT31;68267;51.540;5.854;2023-11-22T04:02:12;1.8;91.0
45313;SHT31;68267;51.540;5.854;2023-11-22T04:15:32;1.8;91.0
45313;SHT31;68267;51.540;5.854;2023-11-22T04:28:51;1.8;91.2
45313;SHT31;68267;51.540;5.854;2023-11-22T04:42:11;1.6;91.6
45313;SHT31;68267;51.540;5.854;2023-11-22T04:55:30;1.7;91.7
45313;SHT31;68267;51.540;5.854;2023-11-22T05:08:50;2.0;92.2
45313;SHT31;68267;51.540;5.854;2023-11-22T05:22:10;2.3;92.5
45313;SHT31;68267;51.540;5.854;2023-11-22T05:35:32;2.6;92.3
45313;SHT31;68267;51.540;5.854;2023-11-22T05:48:52;2.7;92.6
45313;SHT31;68267;51.540;5.854;2023-11-22T06:02:11;2.8;92.6
45313;SHT31;68267;51.540;5.854;2023-11-22T06:15:31;2.8;92.0
45313;SHT31;68267;51.540;5.854;2023-11-22T06:28:51;2.9;92.4
45313;SHT31;68267;51.540;5.854;2023-11-22T06:42:10;2.9;92.3
45313;SHT31;68267;51.540;5.854;2023-11-22T06:55:30;2.7;92.5
45313;SHT31;68267;51.540;5.854;2023-11-22T07:08:50;2.9;92.2
45313;SHT31;68267;51.540;5.854;2023-11-22T07:22:09;2.6;92.0
45313;SHT31;68267;51.540;5.854;2023-11-22T07:35:29;2.9;92.5
45313;SHT31;68267;51.540;5.854;2023-11-22T07:48:49;3.2;92.7
45313;SHT31;68267;51.540;5.854;2023-11-22T08:02:08;3.6;92.9
45313;SHT31;68267;51.540;5.854;2023-11-22T08:15:28;3.9;92.7
45313;SHT31;68267;51.540;5.854;2023-11-22T08:28:50;4.1;91.4
45313;SHT31;68267;51.540;5.854;2023-11-22T08:42:10;3.9;91.5
45313;SHT31;68267;51.540;5.854;2023-11-22T08:55:29;4.0;91.6
45313;SHT31;68267;51.540;5.854;2023-11-22T09:08:49;4.5;91.5
45313;SHT31;68267;51.540;5.854;2023-11-22T09:22:09;4.6;92.0
45313;SHT31;68267;51.540;5.854;2023-11-22T09:35:28;5.3;91.7
45313;SHT31;68267;51.540;5.854;2023-11-22T09:48:48;5.7;91.2
45313;SHT31;68267;51.540;5.854;2023-11-22T10:02:08;6.0;90.2
45313;SHT31;68267;51.540;5.854;2023-11-22T10:15:27;5.9;88.8
45313;SHT31;68267;51.540;5.854;2023-11-22T10:28:47;5.9;88.4
45313;SHT31;68267;51.540;5.854;2023-11-22T10:42:06;6.3;87.7
45313;SHT31;68267;51.540;5.854;2023-11-22T10:55:26;6.3;85.6
45313;SHT31;68267;51.540;5.854;2023-11-22T11:08:46;6.6;84.5
45313;SHT31;68267;51.540;5.854;2023-11-22T11:22:05;6.7;83.6
45313;SHT31;68267;51.540;5.854;2023-11-22T11:35:25;6.6;83.7
45313;SHT31;68267;51.540;5.854;2023-11-22T11:48:45;7.0;83.2
45313;SHT31;68267;51.540;5.854;2023-11-22T12:02:04;6.6;80.4
45313;SHT31;68267;51.540;5.854;2023-11-22T12:15:27;6.3;81.1
45313;SHT31;68267;51.540;5.854;2023-11-22T12:28:46;6.8;81.1
45313;SHT31;68267;51.540;5.854;2023-11-22T12:42:06;7.2;79.2
45313;SHT31;68267;51.540;5.854;2023-11-22T12:55:26;7.0;77.6
45313;SHT31;68267;51.540;5.854;2023-11-22T13:08:45;7.0;76.9
45313;SHT31;68267;51.540;5.854;2023-11-22T13:22:05;7.3;78.5
45313;SHT31;68267;51.540;5.854;2023-11-22T13:35:24;7.4;77.6
45313;SHT31;68267;51.540;5.854;2023-11-22T13:48:44;7.2;79.1
45313;SHT31;68267;51.540;5.854;2023-11-22T14:02:04;7.0;80.2
45313;SHT31;68267;51.540;5.854;2023-11-22T14:15:23;6.6;81.1
45313;SHT31;68267;51.540;5.854;2023-11-22T14:28:43;6.5;81.1
45313;SHT31;68267;51.540;5.854;2023-11-22T14:42:03;6.5;81.7
45313;SHT31;68267;51.540;5.854;2023-11-22T14:55:22;6.1;82.6
45313;SHT31;68267;51.540;5.854;2023-11-22T15:08:42;6.2;83.5
45313;SHT31;68267;51.540;5.854;2023-11-22T15:22:02;6.0;84.4
45313;SHT31;68267;51.540;5.854;2023-11-22T15:35:21;5.9;85.9
45313;SHT31;68267;51.540;5.854;2023-11-22T15:48:41;5.6;85.6
45313;SHT31;68267;51.540;5.854;2023-11-22T16:02:00;5.5;86.3
45313;SHT31;68267;51.540;5.854;2023-11-22T16:15:20;5.5;86.5
45313;SHT31;68267;51.540;5.854;2023-11-22T16:28:40;5.3;87.2
45313;SHT31;68267;51.540;5.854;2023-11-22T16:41:59;5.5;87.1
45313;SHT31;68267;51.540;5.854;2023-11-22T16:55:22;5.5;87.2
45313;SHT31;68267;51.540;5.854;2023-11-22T17:08:41;5.4;87.6
45313;SHT31;68267;51.540;5.854;2023-11-22T17:22:01;5.5;87.5
45313;SHT31;68267;51.540;5.854;2023-11-22T17:35:21;5.6;87.2
45313;SHT31;68267;51.540;5.854;2023-11-22T17:48:40;5.6;87.1
45313;SHT31;68267;51.540;5.854;2023-11-22T18:02:00;5.6;87.0
45313;SHT31;68267;51.540;5.854;2023-11-22T18:15:20;5.7;86.6
45313;SHT31;68267;51.540;5.854;2023-11-22T18:28:39;5.6;86.7
45313;SHT31;68267;51.540;5.854;2023-11-22T18:41:59;5.6;86.7
45313;SHT31;68267;51.540;5.854;2023-11-22T18:55:18;5.7;86.7
45313;SHT31;68267;51.540;5.854;2023-11-22T19:08:41;5.6;86.9
45313;SHT31;68267;51.540;5.854;2023-11-22T19:22:03;5.5;87.0
45313;SHT31;68267;51.540;5.854;2023-11-22T19:35:22;5.6;87.0
45313;SHT31;68267;51.540;5.854;2023-11-22T19:48:42;5.6;86.4
45313;SHT31;68267;51.540;5.854;2023-11-22T20:02:02;5.6;86.1
45313;SHT31;68267;51.540;5.854;2023-11-22T20:15:21;5.7;85.5
45313;SHT31;68267;51.540;5.854;2023-11-22T20:28:41;6.0;84.8
45313;SHT31;68267;51.540;5.854;2023-11-22T20:42:01;6.2;84.5
45313;SHT31;68267;51.540;5.854;2023-11-22T20:55:20;6.3;84.7
45313;SHT31;68267;51.540;5.854;2023-11-22T21:08:40;6.5;84.6
45313;SHT31;68267;51.540;5.854;2023-11-22T21:22:00;6.5;84.7
45313;SHT31;68267;51.540;5.854;2023-11-22T21:35:22;6.6;84.4
45313;SHT31;68267;51.540;5.854;2023-11-22T21:48:41;6.7;84.6
45313;SHT31;68267;51.540;5.854;2023-11-22T22:02:01;6.7;85.0
45313;SHT31;68267;51.540;5.854;2023-11-22T22:15:21;6.7;85.2
45313;SHT31;68267;51.540;5.854;2023-11-22T22:28:40;6.9;85.5
45313;SHT31;68267;51.540;5.854;2023-11-22T22:42:00;6.9;85.6
45313;SHT31;68267;51.540;5.854;2023-11-22T22:55:20;6.9;86.0
45313;SHT31;68267;51.540;5.854;2023-11-22T23:08:39;6.8;86.8
45313;SHT31;68267;51.540;5.854;2023-11-22T23:21:59;6.7;89.1
45313;SHT31;68267;51.540;5.854;2023-11-22T23:35:19;6.7;90.1
45313;SHT31;68267;51.540;5.854;2023-11-22T23:48:38;6.8;90.3
